sensor_id;sensor_type;location;lat;lon;timestamp;pressure;altitude;pressure_sealevel;temperature;humidity
16690;BME280;8458;52.220;9.884;2022-07-29T00:01:14;101030.78;;;17.37;54.71
16690;BME280;8458;52.220;9.884;2022-07-29T00:03:40;101027.88;;;17.43;54.46
16690;BME280;8458;52.220;9.884;2022-07-29T00:06:07;101028.34;;;17.50;54.28
16690;BME280;8458;52.220;9.884;2022-07-29T00:08:33;101016.44;;;17.58;54.07
16690;BME280;8458;52.220;9.884;2022-07-29T00:11:00;101021.38;;;17.66;53.91
16690;BME280;8458;52.220;9.884;2022-07-29T00:13:26;101028.03;;;17.70;53.66
16690;BME280;8458;52.220;9.884;2022-07-29T00:15:54;101023.59;;;17.69;53.37
16690;BME280;8458;52.220;9.884;2022-07-29T00:18:21;101019.72;;;17.65;53.67
16690;BME280;8458;52.220;9.884;2022-07-29T00:20:47;101016.44;;;17.58;53.74
16690;BME280;8458;52.220;9.884;2022-07-29T00:23:14;101016.16;;;17.60;53.57
16690;BME280;8458;52.220;9.884;2022-07-29T00:25:40;101010.53;;;17.60;53.88
16690;BME280;8458;52.220;9.884;2022-07-29T00:28:07;101008.66;;;17.55;53.96
16690;BME280;8458;52.220;9.884;2022-07-29T00:30:33;101002.00;;;17.51;54.16
16690;BME280;8458;52.220;9.884;2022-07-29T00:33:01;100998.66;;;17.49;54.56
16690;BME280;8458;52.220;9.884;2022-07-29T00:35:28;100999.50;;;17.49;54.83
16690;BME280;8458;52.220;9.884;2022-07-29T00:38:08;100994.25;;;17.43;55.11
16690;BME280;8458;52.220;9.884;2022-07-29T00:40:35;100994.88;;;17.39;55.03
16690;BME280;8458;52.220;9.884;2022-07-29T00:43:01;100993.22;;;17.38;55.17
16690;BME280;8458;52.220;9.884;2022-07-29T00:45:28;100995.25;;;17.33;55.37
16690;BME280;8458;52.220;9.884;2022-07-29T00:47:55;100989.94;;;17.31;55.58
16690;BME280;8458;52.220;9.884;2022-07-29T00:50:23;100986.94;;;17.28;55.96
16690;BME280;8458;52.220;9.884;2022-07-29T00:52:50;100987.75;;;17.28;55.94
16690;BME280;8458;52.220;9.884;2022-07-29T00:55:17;100980.63;;;17.36;55.45
16690;BME280;8458;52.220;9.884;2022-07-29T00:57:45;100975.34;;;17.34;55.61
16690;BME280;8458;52.220;9.884;2022-07-29T01:00:14;100972.44;;;17.39;55.65
16690;BME280;8458;52.220;9.884;2022-07-29T01:02:42;100975.78;;;17.42;55.49
16690;BME280;8458;52.220;9.884;2022-07-29T01:05:10;100977.53;;;17.37;55.78
16690;BME280;8458;52.220;9.884;2022-07-29T01:07:39;100975.78;;;17.42;55.49
16690;BME280;8458;52.220;9.884;2022-07-29T01:10:07;100970.09;;;17.47;55.51
16690;BME280;8458;52.220;9.884;2022-07-29T01:12:35;100970.41;;;17.45;55.67
16690;BME280;8458;52.220;9.884;2022-07-29T01:15:05;100965.09;;;17.44;55.61
16690;BME280;8458;52.220;9.884;2022-07-29T01:17:36;100955.88;;;17.43;55.94
16690;BME280;8458;52.220;9.884;2022-07-29T01:20:07;100950.56;;;17.42;56.00
16690;BME280;8458;52.220;9.884;2022-07-29T01:31:10;100939.88;;;17.44;56.96
16690;BME280;8458;52.220;9.884;2022-07-29T01:33:41;100936.16;;;17.48;56.40
16690;BME280;8458;52.220;9.884;2022-07-29T01:36:19;100942.44;;;17.59;56.02
16690;BME280;8458;52.220;9.884;2022-07-29T01:38:52;100936.22;;;17.62;55.29
16690;BME280;8458;52.220;9.884;2022-07-29T01:41:21;100943.88;;;17.56;56.01
16690;BME280;8458;52.220;9.884;2022-07-29T01:43:53;100942.75;;;17.58;56.01
16690;BME280;8458;52.220;9.884;2022-07-29T01:46:27;100953.28;;;17.47;56.00
16690;BME280;8458;52.220;9.884;2022-07-29T01:48:57;100938.53;;;17.22;56.93
16690;BME280;8458;52.220;9.884;2022-07-29T01:51:30;100940.13;;;17.09;57.62
16690;BME280;8458;52.220;9.884;2022-07-29T01:54:02;100942.47;;;17.21;57.13
16690;BME280;8458;52.220;9.884;2022-07-29T01:56:31;100933.22;;;17.20;57.31
16690;BME280;8458;52.220;9.884;2022-07-29T01:58:59;100930.50;;;17.15;57.34
16690;BME280;8458;52.220;9.884;2022-07-29T02:01:29;100933.53;;;17.19;57.24
16690;BME280;8458;52.220;9.884;2022-07-29T02:03:59;100939.91;;;17.25;56.91
16690;BME280;8458;52.220;9.884;2022-07-29T02:06:29;100930.88;;;17.28;56.65
16690;BME280;8458;52.220;9.884;2022-07-29T02:08:58;100928.41;;;17.26;56.71
16690;BME280;8458;52.220;9.884;2022-07-29T02:11:25;100929.59;;;17.20;56.74
16690;BME280;8458;52.220;9.884;2022-07-29T02:13:54;100926.03;;;17.14;57.27
16690;BME280;8458;52.220;9.884;2022-07-29T02:16:23;100924.38;;;17.13;57.05
16690;BME280;8458;52.220;9.884;2022-07-29T02:18:53;100926.94;;;17.10;57.15
16690;BME280;8458;52.220;9.884;2022-07-29T02:21:23;100929.75;;;17.10;57.34
16690;BME280;8458;52.220;9.884;2022-07-29T02:23:51;100924.53;;;17.03;57.35
16690;BME280;8458;52.220;9.884;2022-07-29T02:26:20;100916.97;;;17.03;57.42
16690;BME280;8458;52.220;9.884;2022-07-29T02:28:50;100911.97;;;17.00;57.43
16690;BME280;8458;52.220;9.884;2022-07-29T02:31:20;100903.47;;;16.87;57.69
16690;BME280;8458;52.220;9.884;2022-07-29T02:33:48;100908.34;;;16.76;58.09
16690;BME280;8458;52.220;9.884;2022-07-29T02:36:16;100911.63;;;16.64;58.57
16690;BME280;8458;52.220;9.884;2022-07-29T02:38:45;100907.53;;;16.56;58.82
16690;BME280;8458;52.220;9.884;2022-07-29T02:41:22;100908.94;;;16.54;59.13
16690;BME280;8458;52.220;9.884;2022-07-29T02:43:54;100903.13;;;16.50;59.46
16690;BME280;8458;52.220;9.884;2022-07-29T02:46:26;100907.81;;;16.55;59.46
16690;BME280;8458;52.220;9.884;2022-07-29T02:48:58;100910.31;;;16.56;60.37
16690;BME280;8458;52.220;9.884;2022-07-29T02:51:33;100909.25;;;16.52;60.55
16690;BME280;8458;52.220;9.884;2022-07-29T02:54:07;100909.13;;;16.38;60.80
16690;BME280;8458;52.220;9.884;2022-07-29T02:56:34;100910.84;;;16.34;60.88
16690;BME280;8458;52.220;9.884;2022-07-29T02:59:05;100903.75;;;16.42;60.56
16690;BME280;8458;52.220;9.884;2022-07-29T03:01:34;100896.97;;;16.48;60.01
16690;BME280;8458;52.220;9.884;2022-07-29T03:04:05;100896.75;;;16.44;60.16
16690;BME280;8458;52.220;9.884;2022-07-29T03:06:33;100893.66;;;16.46;60.21
16690;BME280;8458;52.220;9.884;2022-07-29T03:09:00;100894.44;;;16.52;60.23
16690;BME280;8458;52.220;9.884;2022-07-29T03:11:28;100893.25;;;16.53;60.29
16690;BME280;8458;52.220;9.884;2022-07-29T03:13:55;100891.84;;;16.55;60.24
16690;BME280;8458;52.220;9.884;2022-07-29T03:16:23;100896.25;;;16.61;59.77
16690;BME280;8458;52.220;9.884;2022-07-29T03:18:49;100896.84;;;16.58;59.68
16690;BME280;8458;52.220;9.884;2022-07-29T03:21:16;100894.66;;;16.55;59.86
16690;BME280;8458;52.220;9.884;2022-07-29T03:23:44;100892.31;;;16.62;59.63
16690;BME280;8458;52.220;9.884;2022-07-29T03:26:11;100890.03;;;16.64;59.62
16690;BME280;8458;52.220;9.884;2022-07-29T03:28:38;100883.38;;;16.60;59.65
16690;BME280;8458;52.220;9.884;2022-07-29T03:31:05;100884.81;;;16.58;59.71
16690;BME280;8458;52.220;9.884;2022-07-29T03:33:31;100886.25;;;16.55;60.00
16690;BME280;8458;52.220;9.884;2022-07-29T03:35:58;100886.84;;;16.52;60.26
16690;BME280;8458;52.220;9.884;2022-07-29T03:38:26;100888.03;;;16.46;60.34
16690;BME280;8458;52.220;9.884;2022-07-29T03:40:58;100885.91;;;16.38;60.44
16690;BME280;8458;52.220;9.884;2022-07-29T03:43:30;100884.84;;;16.34;60.33
16690;BME280;8458;52.220;9.884;2022-07-29T03:45:57;100884.38;;;16.26;60.45
16690;BME280;8458;52.220;9.884;2022-07-29T03:48:26;100890.56;;;16.23;60.82
16690;BME280;8458;52.220;9.884;2022-07-29T03:50:55;100892.22;;;16.24;60.58
16690;BME280;8458;52.220;9.884;2022-07-29T03:53:22;100885.22;;;16.27;60.76
16690;BME280;8458;52.220;9.884;2022-07-29T03:55:53;100885.81;;;16.24;61.09
16690;BME280;8458;52.220;9.884;2022-07-29T03:58:23;100895.56;;;16.26;61.22
16690;BME280;8458;52.220;9.884;2022-07-29T04:00:50;100886.03;;;16.27;61.06
16690;BME280;8458;52.220;9.884;2022-07-29T04:03:17;100887.13;;;16.31;61.17
16690;BME280;8458;52.220;9.884;2022-07-29T04:05:44;100895.25;;;16.28;61.39
16690;BME280;8458;52.220;9.884;2022-07-29T04:08:10;100884.38;;;16.26;61.77
16690;BME280;8458;52.220;9.884;2022-07-29T04:10:37;100892.72;;;16.31;61.78
16690;BME280;8458;52.220;9.884;2022-07-29T04:13:04;100894.31;;;16.38;61.53
16690;BME280;8458;52.220;9.884;2022-07-29T04:15:32;100885.84;;;16.43;61.37
16690;BME280;8458;52.220;9.884;2022-07-29T04:17:58;100891.84;;;16.55;60.88
16690;BME280;8458;52.220;9.884;2022-07-29T04:20:25;100896.25;;;16.61;60.55
16690;BME280;8458;52.220;9.884;2022-07-29T04:22:51;100901.25;;;16.64;60.30
16690;BME280;8458;52.220;9.884;2022-07-29T04:25:18;100901.25;;;16.64;60.55
16690;BME280;8458;52.220;9.884;2022-07-29T04:27:45;100891.47;;;16.62;60.87
16690;BME280;8458;52.220;9.884;2022-07-29T04:30:38;100886.34;;;16.69;60.28
16690;BME280;8458;52.220;9.884;2022-07-29T04:33:06;100889.44;;;16.67;60.56
16690;BME280;8458;52.220;9.884;2022-07-29T04:35:35;100888.03;;;16.70;60.46
16690;BME280;8458;52.220;9.884;2022-07-29T04:38:03;100895.56;;;16.70;60.81
16690;BME280;8458;52.220;9.884;2022-07-29T04:40:30;100901.72;;;16.72;60.81
16690;BME280;8458;52.220;9.884;2022-07-29T04:42:58;100893.16;;;16.82;60.18
16690;BME280;8458;52.220;9.884;2022-07-29T04:45:25;100902.09;;;16.84;60.21
16690;BME280;8458;52.220;9.884;2022-07-29T04:47:53;100899.56;;;16.88;60.12
16690;BME280;8458;52.220;9.884;2022-07-29T04:50:19;100902.72;;;16.81;60.55
16690;BME280;8458;52.220;9.884;2022-07-29T04:52:46;100899.91;;;16.81;60.75
16690;BME280;8458;52.220;9.884;2022-07-29T04:55:13;100904.06;;;16.83;60.72
16690;BME280;8458;52.220;9.884;2022-07-29T04:57:39;100902.06;;;16.89;61.09
16690;BME280;8458;52.220;9.884;2022-07-29T05:00:07;100897.53;;;16.93;60.93
16690;BME280;8458;52.220;9.884;2022-07-29T05:02:33;100905.53;;;17.00;60.69
16690;BME280;8458;52.220;9.884;2022-07-29T05:05:01;100908.56;;;17.03;60.36
16690;BME280;8458;52.220;9.884;2022-07-29T05:07:28;100907.13;;;17.06;61.02
16690;BME280;8458;52.220;9.884;2022-07-29T05:09:54;100917.13;;;17.12;60.72
16690;BME280;8458;52.220;9.884;2022-07-29T05:12:22;100907.56;;;17.13;61.28
16690;BME280;8458;52.220;9.884;2022-07-29T05:14:48;100911.22;;;17.14;61.50
16690;BME280;8458;52.220;9.884;2022-07-29T05:17:15;100907.88;;;17.12;61.66
16690;BME280;8458;52.220;9.884;2022-07-29T05:19:41;100903.63;;;17.14;61.86
16690;BME280;8458;52.220;9.884;2022-07-29T05:22:09;100910.00;;;17.20;61.46
16690;BME280;8458;52.220;9.884;2022-07-29T05:24:36;100899.53;;;17.26;61.26
16690;BME280;8458;52.220;9.884;2022-07-29T05:27:02;100896.66;;;17.31;60.98
16690;BME280;8458;52.220;9.884;2022-07-29T05:29:29;100901.03;;;17.37;59.97
16690;BME280;8458;52.220;9.884;2022-07-29T05:31:56;100904.06;;;17.41;59.77
16690;BME280;8458;52.220;9.884;2022-07-29T05:34:22;100913.88;;;17.38;59.87
16690;BME280;8458;52.220;9.884;2022-07-29T05:36:50;100898.53;;;17.35;59.62
16690;BME280;8458;52.220;9.884;2022-07-29T05:39:18;100902.00;;;17.27;60.12
16690;BME280;8458;52.220;9.884;2022-07-29T05:41:44;100902.72;;;17.19;60.91
16690;BME280;8458;52.220;9.884;2022-07-29T05:44:11;100888.72;;;17.19;60.65
16690;BME280;8458;52.220;9.884;2022-07-29T05:46:38;100889.94;;;17.13;60.90
16690;BME280;8458;52.220;9.884;2022-07-29T05:49:05;100889.31;;;17.16;60.60
16690;BME280;8458;52.220;9.884;2022-07-29T05:51:31;100889.94;;;17.13;60.78
16690;BME280;8458;52.220;9.884;2022-07-29T05:53:59;100889.94;;;17.13;60.78
16690;BME280;8458;52.220;9.884;2022-07-29T05:56:27;100886.72;;;17.19;61.27
16690;BME280;8458;52.220;9.884;2022-07-29T05:58:54;100886.41;;;17.21;61.42
16690;BME280;8458;52.220;9.884;2022-07-29T06:01:20;100882.94;;;17.29;60.94
16690;BME280;8458;52.220;9.884;2022-07-29T06:03:47;100890.19;;;17.30;60.91
16690;BME280;8458;52.220;9.884;2022-07-29T06:06:13;100893.53;;;17.32;60.65
16690;BME280;8458;52.220;9.884;2022-07-29T06:08:40;100899.16;;;17.32;61.22
16690;BME280;8458;52.220;9.884;2022-07-29T06:11:07;100906.41;;;17.33;60.35
16690;BME280;8458;52.220;9.884;2022-07-29T06:13:36;100901.41;;;17.30;60.75
16690;BME280;8458;52.220;9.884;2022-07-29T06:16:02;100898.09;;;17.28;60.50
16690;BME280;8458;52.220;9.884;2022-07-29T06:18:29;100891.97;;;17.26;60.83
16690;BME280;8458;52.220;9.884;2022-07-29T06:20:57;100892.28;;;17.25;61.09
16690;BME280;8458;52.220;9.884;2022-07-29T06:23:23;100892.69;;;17.32;60.73
16690;BME280;8458;52.220;9.884;2022-07-29T06:25:50;100890.44;;;17.34;61.21
16690;BME280;8458;52.220;9.884;2022-07-29T06:28:16;100894.59;;;17.36;61.67
16690;BME280;8458;52.220;9.884;2022-07-29T06:30:44;100883.81;;;17.44;62.06
16690;BME280;8458;52.220;9.884;2022-07-29T06:33:16;100893.03;;;17.63;61.45
16690;BME280;8458;52.220;9.884;2022-07-29T06:35:42;100884.94;;;17.76;60.77
16690;BME280;8458;52.220;9.884;2022-07-29T06:38:10;100892.66;;;17.84;60.54
16690;BME280;8458;52.220;9.884;2022-07-29T06:40:41;100889.22;;;17.87;59.83
16690;BME280;8458;52.220;9.884;2022-07-29T06:43:26;100886.84;;;17.80;59.65
16690;BME280;8458;52.220;9.884;2022-07-29T06:45:58;100886.53;;;17.82;59.66
16690;BME280;8458;52.220;9.884;2022-07-29T06:48:27;100889.31;;;17.82;60.30
16690;BME280;8458;52.220;9.884;2022-07-29T06:50:53;100892.03;;;17.87;60.25
16690;BME280;8458;52.220;9.884;2022-07-29T06:53:20;100903.72;;;17.94;60.15
16690;BME280;8458;52.220;9.884;2022-07-29T06:55:46;100886.25;;;17.97;59.62
16690;BME280;8458;52.220;9.884;2022-07-29T06:58:13;100883.97;;;17.99;58.79
16690;BME280;8458;52.220;9.884;2022-07-29T07:00:41;100876.06;;;18.01;59.69
16690;BME280;8458;52.220;9.884;2022-07-29T07:03:09;100878.78;;;18.06;58.76
16690;BME280;8458;52.220;9.884;2022-07-29T07:05:36;100876.50;;;18.08;58.83
16690;BME280;8458;52.220;9.884;2022-07-29T07:08:02;100877.75;;;18.16;58.71
16690;BME280;8458;52.220;9.884;2022-07-29T07:10:29;100882.53;;;18.16;57.89
16690;BME280;8458;52.220;9.884;2022-07-29T07:12:56;100881.91;;;18.19;58.81
16690;BME280;8458;52.220;9.884;2022-07-29T07:15:22;100879.00;;;18.24;58.54
16690;BME280;8458;52.220;9.884;2022-07-29T07:17:49;100875.56;;;18.27;58.58
16690;BME280;8458;52.220;9.884;2022-07-29T07:20:17;100873.19;;;18.34;58.00
16690;BME280;8458;52.220;9.884;2022-07-29T07:22:43;100878.38;;;18.41;57.99
16690;BME280;8458;52.220;9.884;2022-07-29T07:25:11;100880.22;;;18.45;58.46
16690;BME280;8458;52.220;9.884;2022-07-29T07:27:38;100877.63;;;18.49;58.46
16690;BME280;8458;52.220;9.884;2022-07-29T07:30:06;100877.59;;;18.63;57.42
16690;BME280;8458;52.220;9.884;2022-07-29T07:32:33;100876.03;;;18.71;57.36
16690;BME280;8458;52.220;9.884;2022-07-29T07:35:00;100881.81;;;18.74;57.29
16690;BME280;8458;52.220;9.884;2022-07-29T07:37:28;100887.84;;;18.81;57.42
16690;BME280;8458;52.220;9.884;2022-07-29T07:39:55;100888.31;;;18.89;57.13
16690;BME280;8458;52.220;9.884;2022-07-29T07:42:21;100890.03;;;18.98;57.12
16690;BME280;8458;52.220;9.884;2022-07-29T07:44:48;100896.69;;;19.03;57.57
16690;BME280;8458;52.220;9.884;2022-07-29T07:47:14;100885.41;;;19.16;56.42
16690;BME280;8458;52.220;9.884;2022-07-29T07:49:45;100884.63;;;19.25;56.07
16690;BME280;8458;52.220;9.884;2022-07-29T07:52:11;100876.69;;;19.27;56.10
16690;BME280;8458;52.220;9.884;2022-07-29T07:54:39;100882.84;;;19.29;55.29
16690;BME280;8458;52.220;9.884;2022-07-29T07:57:05;100876.59;;;19.32;56.06
16690;BME280;8458;52.220;9.884;2022-07-29T07:59:32;100878.75;;;19.35;55.34
16690;BME280;8458;52.220;9.884;2022-07-29T08:01:58;100873.72;;;19.46;55.89
16690;BME280;8458;52.220;9.884;2022-07-29T08:04:26;100879.38;;;19.55;54.25
16690;BME280;8458;52.220;9.884;2022-07-29T08:06:53;100876.94;;;19.62;54.23
16690;BME280;8458;52.220;9.884;2022-07-29T08:09:20;100878.97;;;19.70;54.97
16690;BME280;8458;52.220;9.884;2022-07-29T08:11:48;100876.88;;;19.76;55.42
16690;BME280;8458;52.220;9.884;2022-07-29T08:14:14;100871.63;;;19.83;55.03
16690;BME280;8458;52.220;9.884;2022-07-29T08:16:41;100873.47;;;19.87;54.68
16690;BME280;8458;52.220;9.884;2022-07-29T08:19:08;100872.16;;;19.94;54.99
16690;BME280;8458;52.220;9.884;2022-07-29T08:21:35;100874.38;;;20.05;53.92
16690;BME280;8458;52.220;9.884;2022-07-29T08:24:02;100871.25;;;20.07;54.32
16690;BME280;8458;52.220;9.884;2022-07-29T08:26:42;100880.84;;;20.06;55.35
16690;BME280;8458;52.220;9.884;2022-07-29T08:29:11;100874.22;;;20.11;53.96
16690;BME280;8458;52.220;9.884;2022-07-29T08:31:38;100885.03;;;20.17;54.38
16690;BME280;8458;52.220;9.884;2022-07-29T08:34:05;100878.22;;;20.18;55.65
16690;BME280;8458;52.220;9.884;2022-07-29T08:36:33;100877.47;;;20.27;54.54
16690;BME280;8458;52.220;9.884;2022-07-29T08:39:00;100883.28;;;20.39;54.27
16690;BME280;8458;52.220;9.884;2022-07-29T08:41:27;100882.97;;;20.49;52.82
16690;BME280;8458;52.220;9.884;2022-07-29T08:43:53;100882.31;;;20.52;53.70
16690;BME280;8458;52.220;9.884;2022-07-29T08:46:22;100882.97;;;20.49;54.04
16690;BME280;8458;52.220;9.884;2022-07-29T08:48:50;100887.47;;;20.59;54.27
16690;BME280;8458;52.220;9.884;2022-07-29T08:51:18;100878.84;;;20.55;54.39
16690;BME280;8458;52.220;9.884;2022-07-29T08:53:47;100883.50;;;20.60;54.83
16690;BME280;8458;52.220;9.884;2022-07-29T08:56:14;100884.69;;;20.68;55.47
16690;BME280;8458;52.220;9.884;2022-07-29T08:58:42;100879.91;;;20.77;55.85
16690;BME280;8458;52.220;9.884;2022-07-29T09:01:08;100875.44;;;20.85;55.25
16690;BME280;8458;52.220;9.884;2022-07-29T09:03:39;100883.06;;;21.02;53.45
16690;BME280;8458;52.220;9.884;2022-07-29T09:06:06;100881.75;;;21.08;54.20
16690;BME280;8458;52.220;9.884;2022-07-29T09:08:34;100878.44;;;21.23;53.79
16690;BME280;8458;52.220;9.884;2022-07-29T09:11:01;100879.06;;;21.38;54.63
16690;BME280;8458;52.220;9.884;2022-07-29T09:13:28;100885.41;;;21.52;54.90
16690;BME280;8458;52.220;9.884;2022-07-29T09:15:55;100872.78;;;21.58;53.79
16690;BME280;8458;52.220;9.884;2022-07-29T09:18:33;100861.13;;;21.77;52.50
16690;BME280;8458;52.220;9.884;2022-07-29T09:21:02;100871.03;;;21.92;50.76
16690;BME280;8458;52.220;9.884;2022-07-29T09:24:00;100864.53;;;21.92;51.53
16690;BME280;8458;52.220;9.884;2022-07-29T09:26:28;100866.53;;;22.00;51.47
16690;BME280;8458;52.220;9.884;2022-07-29T09:28:54;100860.19;;;22.03;50.93
16690;BME280;8458;52.220;9.884;2022-07-29T09:31:31;100865.16;;;22.06;51.18
16690;BME280;8458;52.220;9.884;2022-07-29T09:33:58;100865.75;;;22.20;51.15
16690;BME280;8458;52.220;9.884;2022-07-29T09:36:26;100865.22;;;22.27;50.18
16690;BME280;8458;52.220;9.884;2022-07-29T09:38:57;100866.75;;;22.25;50.11
16690;BME280;8458;52.220;9.884;2022-07-29T09:41:25;100855.38;;;22.42;49.86
16690;BME280;8458;52.220;9.884;2022-07-29T09:43:55;100844.50;;;22.53;48.83
16690;BME280;8458;52.220;9.884;2022-07-29T09:46:23;100850.00;;;22.49;51.10
16690;BME280;8458;52.220;9.884;2022-07-29T09:49:05;100848.34;;;22.48;50.78
16690;BME280;8458;52.220;9.884;2022-07-29T09:51:34;100849.84;;;22.46;50.87
16690;BME280;8458;52.220;9.884;2022-07-29T09:54:00;100851.09;;;22.57;50.64
16690;BME280;8458;52.220;9.884;2022-07-29T09:56:39;100851.69;;;22.71;49.98
16690;BME280;8458;52.220;9.884;2022-07-29T09:59:07;100850.56;;;22.85;49.65
16690;BME280;8458;52.220;9.884;2022-07-29T10:01:34;100839.97;;;22.82;50.72
16690;BME280;8458;52.220;9.884;2022-07-29T10:04:01;100847.06;;;22.88;50.34
16690;BME280;8458;52.220;9.884;2022-07-29T10:06:28;100839.44;;;22.88;50.80
16690;BME280;8458;52.220;9.884;2022-07-29T10:09:06;100836.94;;;22.87;50.09
16690;BME280;8458;52.220;9.884;2022-07-29T10:11:33;100836.50;;;22.97;50.71
16690;BME280;8458;52.220;9.884;2022-07-29T10:14:01;100833.63;;;23.06;50.38
16690;BME280;8458;52.220;9.884;2022-07-29T10:16:29;100836.44;;;23.06;50.81
16690;BME280;8458;52.220;9.884;2022-07-29T10:18:58;100834.06;;;23.17;50.78
16690;BME280;8458;52.220;9.884;2022-07-29T10:21:25;100835.03;;;23.21;50.75
16690;BME280;8458;52.220;9.884;2022-07-29T10:23:52;100828.31;;;23.25;50.01
16690;BME280;8458;52.220;9.884;2022-07-29T10:26:20;100831.28;;;23.29;49.03
16690;BME280;8458;52.220;9.884;2022-07-29T10:28:47;100823.19;;;23.40;49.79
16690;BME280;8458;52.220;9.884;2022-07-29T10:31:21;100830.53;;;23.53;48.83
16690;BME280;8458;52.220;9.884;2022-07-29T10:34:07;100830.31;;;23.58;47.67
16690;BME280;8458;52.220;9.884;2022-07-29T10:36:46;100821.72;;;23.79;46.20
16690;BME280;8458;52.220;9.884;2022-07-29T10:39:27;100820.09;;;23.78;47.96
16690;BME280;8458;52.220;9.884;2022-07-29T10:42:08;100819.94;;;23.75;47.99
16690;BME280;8458;52.220;9.884;2022-07-29T10:44:40;100826.66;;;23.83;47.68
16690;BME280;8458;52.220;9.884;2022-07-29T10:47:07;100820.34;;;23.86;46.85
16690;BME280;8458;52.220;9.884;2022-07-29T10:49:33;100820.34;;;23.86;47.04
16690;BME280;8458;52.220;9.884;2022-07-29T10:52:03;100823.53;;;23.96;46.44
16690;BME280;8458;52.220;9.884;2022-07-29T10:54:38;100822.72;;;24.08;45.46
16690;BME280;8458;52.220;9.884;2022-07-29T10:57:29;100815.63;;;24.14;44.95
16690;BME280;8458;52.220;9.884;2022-07-29T11:00:26;100829.56;;;24.20;45.02
16690;BME280;8458;52.220;9.884;2022-07-29T11:02:53;100819.44;;;24.19;44.57
16690;BME280;8458;52.220;9.884;2022-07-29T11:05:21;100819.19;;;24.24;44.85
16690;BME280;8458;52.220;9.884;2022-07-29T11:08:18;100815.19;;;24.25;45.19
16690;BME280;8458;52.220;9.884;2022-07-29T11:10:46;100815.63;;;24.27;44.12
16690;BME280;8458;52.220;9.884;2022-07-29T11:13:50;100816.81;;;24.26;44.62
16690;BME280;8458;52.220;9.884;2022-07-29T11:16:18;100815.41;;;24.20;45.22
16690;BME280;8458;52.220;9.884;2022-07-29T11:19:21;100816.09;;;24.16;45.30
16690;BME280;8458;52.220;9.884;2022-07-29T11:21:48;100820.59;;;24.17;44.96
16690;BME280;8458;52.220;9.884;2022-07-29T11:24:18;100818.94;;;24.16;46.02
16690;BME280;8458;52.220;9.884;2022-07-29T11:27:06;100820.59;;;24.17;45.66
16690;BME280;8458;52.220;9.884;2022-07-29T11:29:35;100816.59;;;24.19;47.26
16690;BME280;8458;52.220;9.884;2022-07-29T11:32:09;100813.06;;;24.22;44.18
16690;BME280;8458;52.220;9.884;2022-07-29T11:34:36;100815.41;;;24.20;44.76
16690;BME280;8458;52.220;9.884;2022-07-29T11:40:11;100818.22;;;24.20;45.06
16690;BME280;8458;52.220;9.884;2022-07-29T11:42:40;100812.69;;;24.23;45.95
16690;BME280;8458;52.220;9.884;2022-07-29T11:45:09;100809.28;;;24.17;44.33
16690;BME280;8458;52.220;9.884;2022-07-29T11:47:40;100809.97;;;24.14;44.64
16690;BME280;8458;52.220;9.884;2022-07-29T11:50:10;100807.59;;;24.16;45.12
16690;BME280;8458;52.220;9.884;2022-07-29T11:52:38;100811.75;;;24.19;46.50
16690;BME280;8458;52.220;9.884;2022-07-29T11:55:11;100810.09;;;24.18;44.09
16690;BME280;8458;52.220;9.884;2022-07-29T11:57:46;100800.41;;;24.19;44.29
16690;BME280;8458;52.220;9.884;2022-07-29T12:00:22;100814.22;;;24.21;44.76
16690;BME280;8458;52.220;9.884;2022-07-29T12:02:49;100813.06;;;24.22;44.17
16690;BME280;8458;52.220;9.884;2022-07-29T12:05:16;100807.94;;;24.27;43.93
16690;BME280;8458;52.220;9.884;2022-07-29T12:07:43;100812.09;;;24.30;44.06
16690;BME280;8458;52.220;9.884;2022-07-29T12:10:09;100801.72;;;24.34;44.12
16690;BME280;8458;52.220;9.884;2022-07-29T12:12:36;100805.00;;;24.36;45.09
16690;BME280;8458;52.220;9.884;2022-07-29T12:15:15;100801.09;;;24.41;44.20
16690;BME280;8458;52.220;9.884;2022-07-29T12:17:46;100794.97;;;24.51;44.84
16690;BME280;8458;52.220;9.884;2022-07-29T12:20:13;100794.81;;;24.60;44.07
16690;BME280;8458;52.220;9.884;2022-07-29T12:22:42;100795.06;;;24.67;44.28
16690;BME280;8458;52.220;9.884;2022-07-29T12:25:11;100792.66;;;24.81;43.98
16690;BME280;8458;52.220;9.884;2022-07-29T12:27:41;100790.47;;;24.91;43.37
16690;BME280;8458;52.220;9.884;2022-07-29T12:30:10;100792.38;;;24.99;43.05
16690;BME280;8458;52.220;9.884;2022-07-29T12:32:40;100783.84;;;24.99;43.69
16690;BME280;8458;52.220;9.884;2022-07-29T12:35:09;100789.44;;;25.11;43.38
16690;BME280;8458;52.220;9.884;2022-07-29T12:37:39;100790.84;;;25.17;42.99
16690;BME280;8458;52.220;9.884;2022-07-29T12:40:08;100784.91;;;25.22;42.80
16690;BME280;8458;52.220;9.884;2022-07-29T12:42:36;100793.78;;;25.21;42.45
16690;BME280;8458;52.220;9.884;2022-07-29T12:45:03;100789.88;;;25.26;42.56
16690;BME280;8458;52.220;9.884;2022-07-29T12:47:31;100788.22;;;25.24;43.09
16690;BME280;8458;52.220;9.884;2022-07-29T12:50:09;100792.00;;;25.29;43.34
16690;BME280;8458;52.220;9.884;2022-07-29T12:52:36;100793.06;;;25.24;43.24
16690;BME280;8458;52.220;9.884;2022-07-29T12:55:04;100792.47;;;25.31;42.78
16690;BME280;8458;52.220;9.884;2022-07-29T12:57:31;100787.44;;;25.40;42.74
16690;BME280;8458;52.220;9.884;2022-07-29T13:00:04;100783.59;;;25.48;45.09
16690;BME280;8458;52.220;9.884;2022-07-29T13:02:33;100781.69;;;25.52;42.81
16690;BME280;8458;52.220;9.884;2022-07-29T13:05:01;100781.69;;;25.52;42.81
16690;BME280;8458;52.220;9.884;2022-07-29T13:07:31;100774.56;;;25.58;42.26
16690;BME280;8458;52.220;9.884;2022-07-29T13:10:11;100776.22;;;25.59;42.61
16690;BME280;8458;52.220;9.884;2022-07-29T13:12:38;100775.94;;;25.65;41.85
16690;BME280;8458;52.220;9.884;2022-07-29T13:15:13;100774.75;;;25.66;43.47
16690;BME280;8458;52.220;9.884;2022-07-29T13:17:41;100773.00;;;25.61;42.37
16690;BME280;8458;52.220;9.884;2022-07-29T13:20:10;100764.88;;;25.59;42.60
16690;BME280;8458;52.220;9.884;2022-07-29T13:22:39;100770.63;;;25.63;42.17